Portada
METAR-TAF:

METAR-TAF

Aeroports :

Lampang, Tailàndia

latitud: 18-17N, longitud: 099-31E, altitud: 241 m

Observació

L'informe es va fer fa 39 minuts, a les 09:00 UTC
Vent 3 kt del Oest/Nord-Oest, variant entre Sud i Nord-Oest
Temperatura 35°C
Humitat 50%
Pressió 1009 hPa
Visibilitat 10 km o més
Escasses núvols a una alçada de 2500 ft

METAR: VTCL 060900Z 29003KT 170V320 9999 FEW025 35/23 Q1009 NOSIG

Hora: 16:39 (09:39 UTC)

Pronòstic

L'informe es va fer fa 4 hores i 39 minuts, a les 05:00 UTC
Pronòstic vàlid del 06 a les 06 UTC al 07 a les 06 UTC
Vent 5 kt del Sud
Visibilitat 10 km o més
Escasses núvols a una alçada de 2500 ft
Temporalment
l' 06 a les 06 UTC al 06 a les 12 UTC
Vent 15 kt del Sud amb ràfegues de 30 kt
Visibilitat: 4000 m
Escasses núvols a una alçada de 1800 ft, Cumulonimbus.
Cel ennuvolat a una alçada de 2000 ft
tempesta, pluja

TAF: VTCL 060500Z 0606/0706 17005KT 9999 FEW025 TEMPO 0606/0612 18015G30KT 4000 TSRA FEW018CB BKN020

Observacions i pronòstics meteorològics de més de 4000 aeroports (METAR i TAF).

Les estacions disponibles són els punts grocs i vermells al mapa.

Posi el ratolí al punt desitjat per veure el nom de l'estació.

Feu clic per veure les observacions i els pronòstics meteorològics.

Per canviar el mapa: feu clic els botons verds amb una creu de color negre per apropar; al botó verd amb un guió per allunyar la imatge; o en les fletxes verdes per a mapes adjacents.


METAR-TAF: